createdAt,value
2022-11-06T00:01:34.517Z,6.97
2022-11-06T00:04:01.831Z,8.13
2022-11-06T00:06:47.291Z,6.90
2022-11-06T00:09:16.359Z,7.88
2022-11-06T00:11:44.016Z,7.68
2022-11-06T00:14:11.745Z,7.40
2022-11-06T00:16:40.208Z,7.13
2022-11-06T00:19:08.390Z,7.53
2022-11-06T00:21:36.237Z,7.30
2022-11-06T00:24:05.679Z,7.32
2022-11-06T00:26:34.556Z,6.90
2022-11-06T00:29:02.650Z,6.80
2022-11-06T00:31:32.823Z,6.55
2022-11-06T00:34:01.306Z,7.50
2022-11-06T00:36:30.800Z,6.85
2022-11-06T00:38:59.275Z,7.32
2022-11-06T00:41:27.318Z,6.60
2022-11-06T00:43:58.977Z,6.28
2022-11-06T00:46:27.093Z,6.55
2022-11-06T00:48:55.745Z,6.68
2022-11-06T00:51:30.258Z,6.45
2022-11-06T00:53:59.994Z,5.85
2022-11-06T00:56:28.308Z,6.50
2022-11-06T00:58:56.434Z,6.82
2022-11-06T01:01:32.069Z,6.45
2022-11-06T01:04:02.441Z,6.85
2022-11-06T01:06:32.773Z,6.82
2022-11-06T01:09:00.427Z,6.72
2022-11-06T01:11:59.553Z,6.43
2022-11-06T01:14:24.817Z,7.07
2022-11-06T01:16:52.380Z,6.38
2022-11-06T01:19:21.084Z,6.82
2022-11-06T01:21:53.025Z,6.82
2022-11-06T01:24:26.403Z,6.88
2022-11-06T01:27:24.333Z,6.38
2022-11-06T01:29:41.810Z,5.88
2022-11-06T01:32:09.081Z,6.88
2022-11-06T01:34:36.417Z,6.68
2022-11-06T01:37:04.578Z,7.00
2022-11-06T01:39:31.852Z,6.18
2022-11-06T01:41:59.512Z,7.18
2022-11-06T01:44:36.057Z,6.38
2022-11-06T01:47:05.913Z,6.47
2022-11-06T01:49:38.714Z,6.97
2022-11-06T01:52:10.291Z,6.38
2022-11-06T01:54:40.356Z,6.50
2022-11-06T01:57:09.527Z,6.75
2022-11-06T01:59:40.247Z,6.93
2022-11-06T02:02:07.826Z,6.28
2022-11-06T02:04:41.617Z,7.53
2022-11-06T02:07:09.571Z,7.90
2022-11-06T02:09:37.171Z,6.72
2022-11-06T02:12:28.494Z,6.43
2022-11-06T02:15:21.682Z,6.72
2022-11-06T02:17:51.978Z,5.97
2022-11-06T02:20:37.978Z,6.13
2022-11-06T02:23:23.160Z,6.43
2022-11-06T02:26:10.767Z,5.80
2022-11-06T02:28:44.282Z,6.07
2022-11-06T02:31:15.979Z,5.97
2022-11-06T02:34:05.898Z,6.40
2022-11-06T02:36:47.886Z,6.07
2022-11-06T02:39:19.385Z,6.32
2022-11-06T02:41:48.133Z,6.63
2022-11-06T02:44:20.881Z,5.88
2022-11-06T02:46:53.459Z,6.18
2022-11-06T02:49:30.552Z,6.40
2022-11-06T02:52:04.605Z,5.60
2022-11-06T02:54:35.731Z,5.78
2022-11-06T02:57:08.950Z,5.53
2022-11-06T02:59:59.380Z,6.25
2022-11-06T03:02:34.088Z,5.47
2022-11-06T03:05:16.010Z,5.63
2022-11-06T03:07:52.925Z,5.60
2022-11-06T03:10:20.706Z,5.18
2022-11-06T03:13:00.944Z,5.70
2022-11-06T03:15:43.239Z,5.93
2022-11-06T03:18:20.235Z,4.88
2022-11-06T03:21:01.856Z,5.78
2022-11-06T03:23:48.353Z,5.65
2022-11-06T03:26:23.901Z,5.03
2022-11-06T03:28:58.381Z,4.90
2022-11-06T03:31:36.895Z,5.25
2022-11-06T03:34:11.137Z,5.22
2022-11-06T03:39:15.839Z,5.18
2022-11-06T03:41:54.652Z,5.15
2022-11-06T03:44:28.327Z,4.40
2022-11-06T03:47:04.028Z,5.15
2022-11-06T03:49:39.501Z,4.72
2022-11-06T03:52:13.541Z,5.65
2022-11-06T03:54:47.228Z,5.13
2022-11-06T03:57:24.685Z,5.55
2022-11-06T03:59:58.081Z,4.72
2022-11-06T04:02:28.686Z,4.57
2022-11-06T04:05:09.309Z,5.22
2022-11-06T04:07:41.436Z,4.53
2022-11-06T04:10:30.044Z,4.85
2022-11-06T04:13:18.503Z,5.05
2022-11-06T04:15:53.102Z,4.30
2022-11-06T04:18:20.894Z,4.30
2022-11-06T04:21:25.365Z,4.07
2022-11-06T04:24:29.984Z,4.28
2022-11-06T04:27:02.715Z,4.30
2022-11-06T04:29:42.250Z,4.13
2022-11-06T04:32:15.069Z,4.05
2022-11-06T04:34:48.164Z,4.07
2022-11-06T04:37:25.754Z,4.15
2022-11-06T04:40:23.919Z,4.25
2022-11-06T04:42:54.063Z,3.88
2022-11-06T04:45:28.072Z,4.43
2022-11-06T04:47:55.798Z,4.18
2022-11-06T04:50:24.986Z,4.20
2022-11-06T04:52:53.083Z,3.92
2022-11-06T04:55:22.586Z,4.15
2022-11-06T04:57:49.859Z,4.10
2022-11-06T05:00:17.696Z,3.70
2022-11-06T05:02:44.882Z,3.63
2022-11-06T05:05:12.292Z,4.03
2022-11-06T05:07:39.592Z,3.35
2022-11-06T05:10:06.973Z,3.28
2022-11-06T05:12:34.141Z,3.90
2022-11-06T05:15:01.442Z,4.15
2022-11-06T05:17:31.545Z,3.60
2022-11-06T05:20:02.587Z,4.15
2022-11-06T05:22:48.489Z,4.00
2022-11-06T05:25:15.760Z,4.00
2022-11-06T05:27:42.901Z,3.63
2022-11-06T05:30:10.687Z,3.58
2022-11-06T05:32:37.887Z,3.63
2022-11-06T05:35:05.405Z,4.20
2022-11-06T05:37:33.022Z,3.53
2022-11-06T05:40:00.193Z,3.67
2022-11-06T05:42:27.415Z,3.45
2022-11-06T05:44:54.748Z,4.32
2022-11-06T05:47:21.957Z,3.42
2022-11-06T05:49:49.151Z,3.95
2022-11-06T05:52:16.421Z,3.55
2022-11-06T05:54:43.635Z,3.72
2022-11-06T05:57:10.816Z,3.97
2022-11-06T05:59:38.103Z,3.35
2022-11-06T06:02:05.653Z,3.80
2022-11-06T06:04:32.971Z,3.60
2022-11-06T06:07:00.870Z,3.47
2022-11-06T06:09:28.193Z,3.42
2022-11-06T06:11:55.485Z,3.30
2022-11-06T06:14:22.829Z,3.00
2022-11-06T06:16:50.052Z,3.90
2022-11-06T06:19:17.514Z,3.50
2022-11-06T06:21:44.766Z,3.42
2022-11-06T06:24:12.007Z,3.65
2022-11-06T06:26:39.330Z,3.45
2022-11-06T06:29:06.662Z,3.22
2022-11-06T06:31:33.849Z,3.42
2022-11-06T06:34:01.077Z,4.13
2022-11-06T06:36:28.354Z,3.65
2022-11-06T06:38:55.954Z,3.78
2022-11-06T06:41:23.018Z,3.25
2022-11-06T06:43:50.719Z,3.50
2022-11-06T06:46:18.346Z,3.83
2022-11-06T06:48:45.658Z,3.20
2022-11-06T06:51:12.871Z,3.35
2022-11-06T06:53:40.080Z,3.80
2022-11-06T06:56:07.407Z,3.33
2022-11-06T06:58:34.718Z,3.15
2022-11-06T07:01:03.689Z,3.13
2022-11-06T07:03:31.956Z,3.33
2022-11-06T07:05:59.857Z,2.67
2022-11-06T07:08:28.229Z,3.58
2022-11-06T07:11:07.896Z,3.35
2022-11-06T07:13:36.614Z,3.33
2022-11-06T07:16:11.051Z,3.42
2022-11-06T07:21:10.919Z,3.30
2022-11-06T07:23:39.238Z,3.22
2022-11-06T07:26:07.273Z,3.30
2022-11-06T07:28:34.553Z,3.90
2022-11-06T07:31:03.646Z,3.80
2022-11-06T07:33:31.286Z,4.40
2022-11-06T07:36:07.361Z,3.63
2022-11-06T07:38:35.547Z,3.33
2022-11-06T07:41:05.184Z,3.17
2022-11-06T07:43:32.945Z,3.88
2022-11-06T07:46:01.987Z,3.60
2022-11-06T07:48:33.471Z,4.40
2022-11-06T07:51:04.108Z,3.65
2022-11-06T07:53:31.570Z,3.50
2022-11-06T07:55:59.365Z,3.75
2022-11-06T07:58:26.845Z,3.63
2022-11-06T08:00:57.141Z,3.88
2022-11-06T08:03:25.861Z,4.00
2022-11-06T08:05:53.234Z,3.50
2022-11-06T08:08:21.462Z,3.55
2022-11-06T08:10:48.782Z,3.95
2022-11-06T08:13:18.217Z,4.00
2022-11-06T08:15:45.688Z,3.30
2022-11-06T08:18:13.497Z,3.70
2022-11-06T08:20:41.248Z,3.58
2022-11-06T08:23:10.733Z,3.55
2022-11-06T08:25:38.360Z,3.35
2022-11-06T08:28:05.650Z,3.50
2022-11-06T08:30:33.103Z,3.47
2022-11-06T08:33:06.332Z,4.05
2022-11-06T08:35:35.184Z,4.00
2022-11-06T08:38:03.200Z,3.58
2022-11-06T08:40:31.481Z,3.67
2022-11-06T08:43:07.749Z,3.70
2022-11-06T08:45:43.268Z,3.70
2022-11-06T08:48:11.119Z,3.67
2022-11-06T08:50:40.387Z,4.00
2022-11-06T08:53:08.355Z,3.70
2022-11-06T08:55:37.835Z,3.05
2022-11-06T08:58:06.213Z,3.88
2022-11-06T09:00:33.775Z,3.80
2022-11-06T09:03:02.996Z,3.20
2022-11-06T09:05:31.610Z,3.70
2022-11-06T09:07:59.714Z,3.55
2022-11-06T09:10:28.230Z,3.60
2022-11-06T09:12:58.027Z,3.25
2022-11-06T09:15:25.913Z,3.65
2022-11-06T09:17:53.722Z,3.30
2022-11-06T09:20:23.492Z,3.63
2022-11-06T09:22:51.746Z,3.25
2022-11-06T09:25:19.479Z,3.20
2022-11-06T09:27:52.006Z,3.00
2022-11-06T09:30:23.337Z,3.55
2022-11-06T09:32:56.252Z,3.03
2022-11-06T09:35:25.409Z,3.30
2022-11-06T09:37:53.264Z,3.08
2022-11-06T09:40:42.458Z,3.22
2022-11-06T09:43:31.790Z,3.00
2022-11-06T09:46:24.156Z,3.50
2022-11-06T09:49:00.770Z,3.17
2022-11-06T09:52:06.668Z,3.60
2022-11-06T09:54:56.081Z,3.55
2022-11-06T09:57:44.533Z,3.35
2022-11-06T10:00:15.132Z,3.60
2022-11-06T10:02:58.244Z,2.92
2022-11-06T10:05:37.250Z,3.55
2022-11-06T10:08:22.908Z,3.20
2022-11-06T10:10:50.122Z,3.40
2022-11-06T10:13:43.561Z,3.28
2022-11-06T10:16:10.920Z,2.72
2022-11-06T10:19:00.640Z,2.85
2022-11-06T10:22:09.686Z,3.50
2022-11-06T10:25:04.635Z,3.38
2022-11-06T10:30:13.420Z,3.50
2022-11-06T10:32:58.343Z,3.63
2022-11-06T10:35:54.382Z,2.92
2022-11-06T10:38:33.851Z,3.38
2022-11-06T10:41:02.444Z,3.15
2022-11-06T10:43:29.881Z,3.38
2022-11-06T10:46:16.878Z,3.05
2022-11-06T10:48:52.456Z,3.20
2022-11-06T10:51:28.642Z,3.05
2022-11-06T10:54:19.191Z,3.05
2022-11-06T10:57:14.707Z,3.28
2022-11-06T10:59:42.457Z,2.67
2022-11-06T11:02:24.227Z,2.70
2022-11-06T11:04:56.736Z,2.67
2022-11-06T11:07:29.642Z,2.85
2022-11-06T11:09:56.789Z,3.15
2022-11-06T11:12:33.124Z,2.58
2022-11-06T11:15:21.583Z,2.83
2022-11-06T11:18:07.546Z,3.00
2022-11-06T11:20:37.006Z,2.80
2022-11-06T11:23:18.526Z,2.80
2022-11-06T11:25:48.869Z,2.50
2022-11-06T11:28:25.586Z,3.08
2022-11-06T11:30:55.578Z,2.40
2022-11-06T11:33:26.412Z,2.65
2022-11-06T11:35:55.398Z,2.63
2022-11-06T11:38:23.093Z,2.70
2022-11-06T11:40:51.754Z,2.47
2022-11-06T11:43:29.506Z,2.45
2022-11-06T11:46:10.973Z,2.70
2022-11-06T11:48:50.082Z,2.83
2022-11-06T11:51:30.942Z,2.50
2022-11-06T11:54:09.913Z,2.17
2022-11-06T11:57:05.673Z,1.98
2022-11-06T12:00:07.055Z,2.03
2022-11-06T12:02:44.058Z,2.25
2022-11-06T12:05:16.494Z,2.22
2022-11-06T12:07:56.201Z,1.90
2022-11-06T12:10:35.535Z,2.20
2022-11-06T12:13:19.260Z,2.10
2022-11-06T12:15:55.191Z,1.73
2022-11-06T12:18:27.439Z,1.92
2022-11-06T12:21:17.885Z,2.10
2022-11-06T12:24:13.087Z,1.98
2022-11-06T12:26:52.376Z,1.88
2022-11-06T12:29:23.730Z,2.10
2022-11-06T12:32:24.156Z,1.80
2022-11-06T12:35:15.869Z,1.80
2022-11-06T12:38:03.971Z,1.75
2022-11-06T12:40:43.516Z,1.90
2022-11-06T12:43:20.948Z,1.90
2022-11-06T12:45:53.529Z,1.70
2022-11-06T12:48:48.179Z,1.85
2022-11-06T12:51:23.935Z,1.60
2022-11-06T12:54:11.720Z,1.58
2022-11-06T12:57:15.942Z,1.50
2022-11-06T13:00:05.735Z,1.60
2022-11-06T13:02:53.576Z,1.60
2022-11-06T13:05:28.611Z,1.90
2022-11-06T13:08:29.076Z,1.85
2022-11-06T13:11:07.705Z,1.95
2022-11-06T13:13:59.084Z,1.95
2022-11-06T13:16:51.499Z,1.98
2022-11-06T13:19:20.802Z,1.80
2022-11-06T13:22:11.610Z,1.48
2022-11-06T13:24:48.273Z,1.60
2022-11-06T13:27:28.037Z,1.40
2022-11-06T13:30:03.168Z,1.65
2022-11-06T13:32:32.910Z,1.48
2022-11-06T13:35:00.708Z,1.70
2022-11-06T13:37:41.017Z,1.80
2022-11-06T13:40:38.139Z,1.85
2022-11-06T13:43:15.508Z,1.95
2022-11-06T13:46:11.842Z,1.98
2022-11-06T13:48:54.690Z,1.85
2022-11-06T13:51:47.257Z,1.73
2022-11-06T13:54:26.476Z,1.70
2022-11-06T13:57:16.683Z,1.88
2022-11-06T14:00:08.599Z,2.05
2022-11-06T14:02:35.807Z,1.70
2022-11-06T14:05:27.638Z,1.80
2022-11-06T14:07:56.372Z,1.90
2022-11-06T14:10:51.557Z,1.52
2022-11-06T14:13:26.536Z,2.60
2022-11-06T14:16:23.016Z,1.90
2022-11-06T14:19:12.797Z,1.50
2022-11-06T14:21:40.058Z,1.77
2022-11-06T14:24:15.944Z,2.00
2022-11-06T14:26:45.517Z,1.92
2022-11-06T14:29:27.979Z,1.75
2022-11-06T14:32:21.754Z,2.17
2022-11-06T14:34:49.043Z,1.95
2022-11-06T14:37:18.891Z,1.90
2022-11-06T14:39:52.239Z,1.58
2022-11-06T14:42:31.132Z,1.63
2022-11-06T14:45:20.722Z,1.88
2022-11-06T14:47:52.876Z,1.80
2022-11-06T14:50:20.028Z,2.00
2022-11-06T14:52:52.757Z,1.80
2022-11-06T14:55:42.474Z,1.67
2022-11-06T14:58:15.302Z,1.60
2022-11-06T15:01:01.553Z,1.88
2022-11-06T15:03:49.793Z,1.95
2022-11-06T15:06:16.920Z,1.70
2022-11-06T15:08:50.062Z,1.70
2022-11-06T15:11:32.691Z,1.92
2022-11-06T15:14:02.240Z,1.88
2022-11-06T15:17:10.574Z,1.75
2022-11-06T15:20:01.930Z,2.33
2022-11-06T15:22:48.701Z,2.20
2022-11-06T15:25:28.321Z,2.40
2022-11-06T15:28:07.804Z,2.10
2022-11-06T15:30:49.108Z,2.33
2022-11-06T15:33:42.227Z,1.90
2022-11-06T15:36:13.764Z,2.10
2022-11-06T15:38:42.603Z,3.83
2022-11-06T15:41:19.179Z,2.17
2022-11-06T15:43:49.266Z,2.53
2022-11-06T15:46:21.947Z,2.10
2022-11-06T15:49:06.682Z,2.00
2022-11-06T15:51:37.470Z,2.10
2022-11-06T15:54:04.859Z,2.13
2022-11-06T15:56:35.033Z,2.35
2022-11-06T15:59:17.339Z,2.15
2022-11-06T16:01:48.987Z,1.90
2022-11-06T16:04:21.148Z,2.10
2022-11-06T16:06:50.112Z,2.10
2022-11-06T16:09:27.083Z,2.22
2022-11-06T16:11:55.072Z,2.30
2022-11-06T16:14:23.008Z,2.30
2022-11-06T16:16:54.695Z,2.40
2022-11-06T16:19:24.632Z,2.45
2022-11-06T16:21:57.642Z,2.30
2022-11-06T16:27:11.765Z,2.22
2022-11-06T16:29:40.106Z,2.25
2022-11-06T16:32:18.186Z,2.60
2022-11-06T16:34:48.106Z,2.28
2022-11-06T16:37:18.375Z,2.40
2022-11-06T16:39:49.611Z,2.47
2022-11-06T16:42:28.038Z,2.53
2022-11-06T16:45:02.511Z,2.40
2022-11-06T16:47:29.963Z,2.90
2022-11-06T16:50:02.228Z,2.67
2022-11-06T16:52:41.737Z,3.13
2022-11-06T16:55:16.629Z,2.42
2022-11-06T16:57:59.807Z,2.40
2022-11-06T17:00:31.640Z,2.67
2022-11-06T17:03:08.890Z,2.60
2022-11-06T17:05:38.767Z,3.30
2022-11-06T17:08:18.476Z,3.25
2022-11-06T17:10:53.544Z,3.10
2022-11-06T17:13:23.287Z,3.28
2022-11-06T17:15:59.174Z,3.80
2022-11-06T17:18:30.645Z,3.13
2022-11-06T17:21:00.784Z,2.78
2022-11-06T17:23:29.769Z,3.67
2022-11-06T17:26:06.713Z,3.00
2022-11-06T17:28:34.170Z,3.30
2022-11-06T17:31:01.383Z,3.35
2022-11-06T17:33:28.784Z,2.90
2022-11-06T17:35:55.993Z,3.08
2022-11-06T17:38:23.249Z,3.40
2022-11-06T17:40:50.551Z,3.35
2022-11-06T17:43:18.015Z,3.33
2022-11-06T17:45:48.177Z,3.50
2022-11-06T17:48:15.738Z,3.60
2022-11-06T17:51:01.434Z,3.50
2022-11-06T17:53:28.673Z,3.58
2022-11-06T17:55:56.585Z,3.50
2022-11-06T17:58:23.802Z,3.83
2022-11-06T18:00:51.194Z,3.58
2022-11-06T18:03:22.978Z,3.78
2022-11-06T18:05:50.366Z,4.78
2022-11-06T18:08:18.620Z,3.70
2022-11-06T18:10:50.694Z,4.15
2022-11-06T18:13:17.934Z,5.05
2022-11-06T18:15:45.170Z,7.72
2022-11-06T18:18:15.843Z,4.25
2022-11-06T18:20:48.454Z,3.65
2022-11-06T18:23:16.268Z,4.07
2022-11-06T18:25:44.427Z,3.45
2022-11-06T18:28:11.736Z,3.80
2022-11-06T18:30:39.112Z,4.07
2022-11-06T18:33:06.433Z,4.40
2022-11-06T18:35:33.655Z,3.90
2022-11-06T18:38:01.705Z,3.83
2022-11-06T18:40:28.995Z,3.55
2022-11-06T18:42:56.198Z,3.97
2022-11-06T18:45:23.430Z,3.72
2022-11-06T18:47:50.671Z,3.95
2022-11-06T18:50:18.106Z,3.42
2022-11-06T18:52:57.502Z,3.83
2022-11-06T18:55:25.522Z,3.90
2022-11-06T18:57:53.280Z,3.60
2022-11-06T19:00:20.860Z,3.50
2022-11-06T19:02:48.132Z,3.47
2022-11-06T19:05:15.696Z,3.85
2022-11-06T19:07:47.779Z,3.70
2022-11-06T19:10:17.828Z,3.70
2022-11-06T19:12:45.034Z,3.85
2022-11-06T19:15:12.350Z,3.60
2022-11-06T19:17:42.238Z,4.15
2022-11-06T19:20:13.783Z,3.70
2022-11-06T19:22:42.427Z,4.10
2022-11-06T19:25:10.149Z,3.65
2022-11-06T19:27:38.163Z,3.40
2022-11-06T19:30:06.012Z,3.30
2022-11-06T19:32:33.223Z,3.40
2022-11-06T19:35:09.498Z,3.13
2022-11-06T19:37:38.676Z,3.50
2022-11-06T19:40:10.692Z,2.90
2022-11-06T19:42:38.111Z,2.83
2022-11-06T19:45:06.141Z,2.90
2022-11-06T19:47:33.476Z,3.20
2022-11-06T19:50:08.873Z,2.72
2022-11-06T19:52:43.174Z,2.95
2022-11-06T19:55:26.944Z,3.00
2022-11-06T19:57:57.708Z,2.70
2022-11-06T20:00:25.148Z,2.58
2022-11-06T20:02:52.697Z,2.97
2022-11-06T20:05:25.180Z,2.75
2022-11-06T20:07:54.489Z,2.47
2022-11-06T20:10:22.231Z,2.85
2022-11-06T20:12:49.372Z,2.47
2022-11-06T20:15:23.659Z,2.70
2022-11-06T20:17:53.569Z,2.50
2022-11-06T20:20:20.940Z,3.00
2022-11-06T20:22:48.965Z,2.95
2022-11-06T20:25:16.147Z,2.55
2022-11-06T20:27:44.595Z,2.75
2022-11-06T20:30:12.487Z,2.55
2022-11-06T20:32:39.749Z,2.38
2022-11-06T20:35:07.801Z,2.30
2022-11-06T20:37:35.276Z,2.58
2022-11-06T20:40:02.557Z,2.42
2022-11-06T20:42:29.749Z,2.10
2022-11-06T20:44:57.078Z,2.85
2022-11-06T20:47:24.447Z,2.30
2022-11-06T20:49:53.547Z,2.67
2022-11-06T20:52:20.653Z,2.92
2022-11-06T20:54:47.941Z,6.20
2022-11-06T20:57:17.786Z,4.28
2022-11-06T20:59:46.014Z,2.78
2022-11-06T21:02:13.955Z,3.22
2022-11-06T21:04:41.345Z,7.32
2022-11-06T21:07:08.511Z,8.10
2022-11-06T21:09:35.869Z,2.38
2022-11-06T21:12:03.158Z,3.70
2022-11-06T21:14:30.584Z,2.80
2022-11-06T21:16:57.828Z,4.57
2022-11-06T21:19:25.368Z,2.17
2022-11-06T21:21:56.821Z,3.40
2022-11-06T21:24:24.925Z,2.72
2022-11-06T21:26:55.286Z,2.90
2022-11-06T21:29:24.236Z,2.72
2022-11-06T21:31:52.069Z,2.88
2022-11-06T21:34:19.853Z,2.88
2022-11-06T21:36:47.969Z,2.92
2022-11-06T21:39:18.094Z,3.00
2022-11-06T21:41:45.848Z,3.00
2022-11-06T21:44:15.874Z,3.03
2022-11-06T21:46:45.674Z,3.28
2022-11-06T21:49:14.034Z,2.63
2022-11-06T21:51:41.850Z,2.70
2022-11-06T21:54:32.215Z,3.00
2022-11-06T21:56:59.488Z,3.00
2022-11-06T21:59:28.187Z,2.80
2022-11-06T22:01:56.187Z,2.85
2022-11-06T22:04:23.698Z,3.10
2022-11-06T22:06:52.703Z,2.22
2022-11-06T22:09:25.552Z,2.20
2022-11-06T22:11:53.170Z,2.78
2022-11-06T22:14:20.532Z,2.60
2022-11-06T22:16:48.221Z,2.25
2022-11-06T22:19:16.510Z,2.17
2022-11-06T22:21:43.825Z,2.70
2022-11-06T22:24:15.140Z,2.30
2022-11-06T22:26:42.457Z,2.70
2022-11-06T22:29:12.429Z,2.70
2022-11-06T22:31:39.773Z,2.45
2022-11-06T22:34:06.760Z,2.45
2022-11-06T22:36:36.546Z,2.13
2022-11-06T22:39:09.148Z,2.30
2022-11-06T22:41:36.537Z,2.20
2022-11-06T22:44:05.010Z,2.17
2022-11-06T22:46:32.447Z,2.80
2022-11-06T22:48:59.843Z,2.30
2022-11-06T22:51:30.295Z,2.20
2022-11-06T22:53:58.077Z,2.95
2022-11-06T22:56:26.985Z,2.20
2022-11-06T22:59:02.736Z,2.30
2022-11-06T23:01:34.817Z,2.28
2022-11-06T23:04:06.714Z,2.40
2022-11-06T23:06:34.373Z,2.28
2022-11-06T23:09:01.631Z,2.60
2022-11-06T23:11:30.058Z,2.50
2022-11-06T23:13:58.336Z,2.50
2022-11-06T23:16:46.028Z,2.38
2022-11-06T23:19:15.822Z,2.42
2022-11-06T23:21:43.979Z,2.30
2022-11-06T23:24:11.633Z,2.33
2022-11-06T23:26:38.981Z,2.13
2022-11-06T23:29:06.354Z,2.40
2022-11-06T23:31:33.592Z,2.25
2022-11-06T23:34:00.869Z,2.10
2022-11-06T23:36:28.082Z,2.17
2022-11-06T23:38:55.394Z,2.00
2022-11-06T23:41:41.060Z,2.47
2022-11-06T23:44:28.137Z,1.98
2022-11-06T23:46:55.385Z,2.10
2022-11-06T23:49:23.003Z,2.00
2022-11-06T23:51:50.708Z,2.00
2022-11-06T23:54:18.187Z,1.88
2022-11-06T23:56:45.457Z,1.90
2022-11-06T23:59:13.344Z,1.77
